Time;durP1;ratioP1;P1;durP2;ratioP2;P2;SDS_P1;SDS_P2;PMS_P1;PMS_P2;Temp;Humidity;BMP_temperature;BMP_pressure;BME280_temperature;BME280_humidity;BME280_pressure;Samples;Min_cycle;Max_cycle;Signal;HPM_P1;HPM_P2
2023/03/30 00:02:22;;;;;;;35.63;19.23;;;;;;;-145.18;100.00;60484.78;5013764;28;20470;-62
2023/03/30 00:04:51;;;;;;;34.57;20.37;;;;;;;-145.18;100.00;60484.78;5012553;28;20107;-62
2023/03/30 00:07:18;;;;;;;38.17;21.13;;;;;;;-145.18;100.00;60484.78;5013359;28;20182;-62
2023/03/30 00:09:45;;;;;;;34.97;20.43;;;;;;;-145.18;100.00;60484.78;5009042;28;20505;-62
2023/03/30 00:12:19;;;;;;;37.80;20.57;;;;;;;-145.18;100.00;60484.78;5006443;28;20021;-63
2023/03/30 00:14:45;;;;;;;36.57;21.07;;;;;;;-145.18;100.00;60484.78;5008472;28;20026;-63
2023/03/30 00:17:11;;;;;;;37.00;21.67;;;;;;;-145.18;100.00;60484.78;5009157;28;20032;-63
2023/03/30 00:19:37;;;;;;;38.13;21.47;;;;;;;-145.18;100.00;60484.78;5009933;28;20032;-62
2023/03/30 00:22:08;;;;;;;37.53;20.77;;;;;;;-145.18;100.00;60484.78;5011758;28;20417;-62
2023/03/30 00:24:35;;;;;;;35.97;21.85;;;;;;;-145.18;100.00;60484.78;5006586;28;20515;-62
2023/03/30 00:27:01;;;;;;;36.30;20.57;;;;;;;-145.18;100.00;60484.78;5010942;28;20026;-63
2023/03/30 00:29:26;;;;;;;37.03;21.50;;;;;;;-145.18;100.00;60484.78;5009916;28;20512;-62
2023/03/30 00:31:52;;;;;;;35.97;20.70;;;;;;;-145.18;100.00;60484.78;5007963;28;20054;-63
2023/03/30 00:34:17;;;;;;;40.57;21.20;;;;;;;-145.18;100.00;60484.78;5011675;28;20483;-62
2023/03/30 00:36:45;;;;;;;37.43;20.83;;;;;;;-145.18;100.00;60484.78;5011262;28;20029;-63
2023/03/30 00:39:11;;;;;;;34.97;20.20;;;;;;;-145.18;100.00;60484.78;5010340;28;20033;-63
2023/03/30 00:41:38;;;;;;;34.57;20.00;;;;;;;-145.18;100.00;60484.78;5009151;28;20054;-62
2023/03/30 00:44:42;;;;;;;33.50;20.50;;;;;;;-145.18;100.00;60484.78;5011794;28;20029;-62
2023/03/30 00:47:07;;;;;;;36.00;20.27;;;;;;;-145.18;100.00;60484.78;5011206;28;20034;-62
2023/03/30 00:49:33;;;;;;;31.03;18.80;;;;;;;-145.18;100.00;60484.78;5011361;28;20076;-63
2023/03/30 00:51:59;;;;;;;34.20;19.17;;;;;;;-145.18;100.00;60484.78;5009243;28;20034;-62
2023/03/30 00:54:25;;;;;;;34.40;18.73;;;;;;;-145.18;100.00;60484.78;5011791;28;20101;-63
2023/03/30 00:56:51;;;;;;;32.03;19.70;;;;;;;-145.18;100.00;60484.78;5011346;28;20550;-62
2023/03/30 00:59:16;;;;;;;29.50;17.77;;;;;;;-145.18;100.00;60484.78;5011945;28;20037;-63
2023/03/30 01:02:20;;;;;;;28.40;18.13;;;;;;;-145.18;100.00;60484.78;5009461;28;20037;-62
2023/03/30 01:04:47;;;;;;;30.43;18.40;;;;;;;-145.18;100.00;60484.78;5003354;28;20049;-63
2023/03/30 01:07:14;;;;;;;31.83;18.77;;;;;;;-145.18;100.00;60484.78;5008502;28;20497;-62
2023/03/30 01:09:41;;;;;;;35.10;19.00;;;;;;;-145.18;100.00;60484.78;5013306;28;20034;-62
2023/03/30 01:12:07;;;;;;;31.50;18.43;;;;;;;-145.18;100.00;60484.78;5015649;28;20025;-62
2023/03/30 01:14:34;;;;;;;33.33;17.97;;;;;;;-145.18;100.00;60484.78;5015413;28;20022;-63
2023/03/30 01:18:02;;;;;;;27.30;17.13;;;;;;;-145.18;100.00;60484.78;5001279;28;20045;-63
2023/03/30 01:21:26;;;;;;;30.37;16.67;;;;;;;-145.18;100.00;60484.78;4879378;29;20056;-63
2023/03/30 01:24:21;;;;;;;30.17;17.07;;;;;;;-145.18;100.00;60484.78;4842826;29;20042;-63
2023/03/30 01:26:54;;;;;;;27.70;16.60;;;;;;;-145.18;100.00;60484.78;4842579;29;20068;-62
2023/03/30 01:30:09;;;;;;;20.90;14.70;;;;;;;-145.18;100.00;60484.78;4841605;29;20049;-63
2023/03/30 01:33:13;;;;;;;25.97;14.20;;;;;;;-145.18;100.00;60484.78;4826869;29;20045;-62
2023/03/30 01:36:27;;;;;;;24.67;14.03;;;;;;;-145.18;100.00;60484.78;4787981;29;20568;-62
2023/03/30 01:39:32;;;;;;;25.13;13.60;;;;;;;-145.18;100.00;60484.78;4753221;30;20056;-63
2023/03/30 01:42:35;;;;;;;27.33;14.07;;;;;;;-145.18;100.00;60484.78;4763520;29;20047;-62
2023/03/30 01:45:13;;;;;;;18.90;12.90;;;;;;;-145.18;100.00;60484.78;4768860;30;20497;-63
2023/03/30 01:48:07;;;;;;;22.73;12.80;;;;;;;-145.18;100.00;60484.78;4769334;30;20047;-63
2023/03/30 01:50:39;;;;;;;19.63;12.27;;;;;;;-145.18;100.00;60484.78;4760094;30;20537;-63
2023/03/30 01:53:57;;;;;;;20.40;12.63;;;;;;;-145.18;100.00;60484.78;4773526;29;20102;-62
2023/03/30 01:56:27;;;;;;;21.10;12.77;;;;;;;-145.18;100.00;60484.78;4862788;29;20326;-62
2023/03/30 01:59:01;;;;;;;19.57;12.40;;;;;;;-145.18;100.00;60484.78;4898490;29;20050;-62
2023/03/30 02:01:29;;;;;;;20.27;12.50;;;;;;;-145.18;100.00;60484.78;4895426;29;20032;-62
2023/03/30 02:03:57;;;;;;;22.67;13.27;;;;;;;-145.18;100.00;60484.78;4898062;29;20423;-62
2023/03/30 02:06:37;;;;;;;20.90;12.20;;;;;;;-145.18;100.00;60484.78;4898343;29;20585;-62
2023/03/30 02:09:06;;;;;;;19.20;12.10;;;;;;;-145.18;100.00;60484.78;4901795;29;20050;-62
2023/03/30 02:11:34;;;;;;;21.77;11.80;;;;;;;-145.18;100.00;60484.78;4916766;29;20032;-62
2023/03/30 02:14:02;;;;;;;19.80;11.43;;;;;;;-145.18;100.00;60484.78;4916430;29;20055;-62
2023/03/30 02:16:43;;;;;;;20.30;11.53;;;;;;;-145.18;100.00;60484.78;4935099;29;20036;-62
2023/03/30 02:19:08;;;;;;;19.43;11.30;;;;;;;-145.18;100.00;60484.78;4935204;29;20043;-62
2023/03/30 02:21:34;;;;;;;21.20;10.83;;;;;;;-145.18;100.00;60484.78;4934214;29;20110;-62
2023/03/30 02:24:02;;;;;;;22.50;11.50;;;;;;;-145.18;100.00;60484.78;4935668;29;20032;-62
2023/03/30 02:26:28;;;;;;;19.67;10.80;;;;;;;-145.18;100.00;60484.78;4935381;29;20044;-62
2023/03/30 02:28:55;;;;;;;18.53;10.80;;;;;;;-145.18;100.00;60484.78;4936571;29;20043;-62
2023/03/30 02:31:21;;;;;;;21.03;10.50;;;;;;;-145.18;100.00;60484.78;4940767;28;20032;-70
2023/03/30 02:34:32;;;;;;;17.43;10.43;;;;;;;-145.18;100.00;60484.78;5012814;28;20394;-70
2023/03/30 02:37:42;;;;;;;17.40;9.67;;;;;;;-145.18;100.00;60484.78;4995645;28;20093;-63
2023/03/30 02:40:44;;;;;;;15.83;9.47;;;;;;;-145.18;100.00;60484.78;4961091;28;20038;-63
2023/03/30 02:43:37;;;;;;;17.13;9.27;;;;;;;-145.18;100.00;60484.78;4948838;28;20426;-63
2023/03/30 02:46:33;;;;;;;13.70;8.57;;;;;;;-145.18;100.00;60484.78;4952764;28;20039;-62
2023/03/30 02:49:16;;;;;;;15.93;8.70;;;;;;;-145.18;100.00;60484.78;4972177;28;20084;-63
2023/03/30 02:51:48;;;;;;;13.47;8.47;;;;;;;-145.18;100.00;60484.78;4972236;28;20038;-62
2023/03/30 02:54:51;;;;;;;13.37;8.13;;;;;;;-145.18;100.00;60484.78;4972067;28;20057;-62
2023/03/30 02:57:41;;;;;;;14.93;7.90;;;;;;;-145.18;100.00;60484.78;4952612;29;20511;-62
2023/03/30 03:00:24;;;;;;;13.13;7.30;;;;;;;-145.18;100.00;60484.78;4943159;29;20630;-62
2023/03/30 03:02:57;;;;;;;11.70;7.47;;;;;;;-145.18;100.00;60484.78;4949261;29;20504;-62
2023/03/30 03:05:26;;;;;;;13.33;7.60;;;;;;;-145.18;100.00;60484.78;4950626;29;20035;-63
2023/03/30 03:07:52;;;;;;;13.97;7.30;;;;;;;-145.18;100.00;60484.78;4952779;29;20505;-63
2023/03/30 03:10:18;;;;;;;9.97;6.47;;;;;;;-145.18;100.00;60484.78;4952593;29;20063;-63
2023/03/30 03:12:44;;;;;;;12.27;6.50;;;;;;;-145.18;100.00;60484.78;4952583;29;20127;-63
2023/03/30 03:15:11;;;;;;;15.87;7.73;;;;;;;-145.18;100.00;60484.78;4952446;29;20114;-63
2023/03/30 03:17:37;;;;;;;12.53;6.23;;;;;;;-145.18;100.00;60484.78;5004138;28;20046;-62
2023/03/30 03:20:04;;;;;;;10.20;5.57;;;;;;;-145.18;100.00;60484.78;5010866;28;20508;-63
2023/03/30 03:22:30;;;;;;;9.37;5.23;;;;;;;-145.18;100.00;60484.78;5011325;28;20062;-62
2023/03/30 03:24:56;;;;;;;10.20;5.23;;;;;;;-145.18;100.00;60484.78;5010874;28;20059;-62
2023/03/30 03:27:21;;;;;;;8.67;4.60;;;;;;;-145.18;100.00;60484.78;5011258;28;20510;-62
2023/03/30 03:29:48;;;;;;;9.13;3.80;;;;;;;-145.18;100.00;60484.78;5010806;28;20575;-63
2023/03/30 03:32:14;;;;;;;8.30;3.90;;;;;;;-145.18;100.00;60484.78;5012043;28;20065;-63
2023/03/30 03:34:43;;;;;;;7.83;3.60;;;;;;;-145.18;100.00;60484.78;5012689;28;20057;-63
2023/03/30 03:37:09;;;;;;;11.13;3.90;;;;;;;-145.18;100.00;60484.78;5015771;28;20187;-63
2023/03/30 03:39:36;;;;;;;10.80;3.37;;;;;;;-145.18;100.00;60484.78;5014757;28;20037;-62
2023/03/30 03:42:02;;;;;;;6.87;3.00;;;;;;;-145.18;100.00;60484.78;5014274;28;20034;-62
2023/03/30 03:44:27;;;;;;;8.80;3.20;;;;;;;-145.18;100.00;60484.78;5017607;28;20030;-62
2023/03/30 03:46:53;;;;;;;6.20;2.70;;;;;;;-145.18;100.00;60484.78;5031002;28;20036;-62
2023/03/30 03:49:18;;;;;;;10.77;3.40;;;;;;;-145.18;100.00;60484.78;5019731;28;20115;-62
2023/03/30 03:51:44;;;;;;;6.73;2.83;;;;;;;-145.18;100.00;60484.78;5020447;28;20033;-62
2023/03/30 03:54:09;;;;;;;6.83;3.00;;;;;;;-145.18;100.00;60484.78;5021677;28;20029;-62
2023/03/30 03:56:35;;;;;;;8.40;3.00;;;;;;;-145.18;100.00;60484.78;5022161;28;20447;-62
2023/03/30 03:59:02;;;;;;;9.83;2.90;;;;;;;-145.18;100.00;60484.78;5016133;28;20029;-62
2023/03/30 04:01:28;;;;;;;9.40;3.00;;;;;;;-145.18;100.00;60484.78;5019166;28;20505;-63
2023/03/30 04:03:54;;;;;;;7.87;3.23;;;;;;;-145.18;100.00;60484.78;5017897;28;20030;-62
2023/03/30 04:06:20;;;;;;;8.37;3.10;;;;;;;-145.18;100.00;60484.78;5017123;28;20560;-63
2023/03/30 04:08:45;;;;;;;10.37;3.30;;;;;;;-145.18;100.00;60484.78;5020395;28;20030;-63
2023/03/30 04:11:12;;;;;;;5.70;2.70;;;;;;;-145.18;100.00;60484.78;5020544;28;20053;-62
2023/03/30 04:13:38;;;;;;;7.77;2.70;;;;;;;-145.18;100.00;60484.78;5017595;28;20441;-63
2023/03/30 04:16:04;;;;;;;9.80;2.80;;;;;;;-145.18;100.00;60484.78;5018893;28;20071;-63
2023/03/30 04:18:32;;;;;;;6.70;2.63;;;;;;;-145.18;100.00;60484.78;5021416;28;20047;-63
2023/03/30 04:21:01;;;;;;;6.20;2.60;;;;;;;-145.18;100.00;60484.78;5017228;28;20465;-62
2023/03/30 04:23:29;;;;;;;8.07;2.87;;;;;;;-145.18;100.00;60484.78;5032518;28;20481;-62
2023/03/30 04:25:56;;;;;;;7.60;2.90;;;;;;;-145.18;100.00;60484.78;5018043;28;20072;-62
2023/03/30 04:28:23;;;;;;;7.67;2.80;;;;;;;-145.18;100.00;60484.78;5018425;28;20124;-62
2023/03/30 04:30:49;;;;;;;10.50;2.40;;;;;;;-145.18;100.00;60484.78;5017589;28;20496;-63
2023/03/30 04:33:15;;;;;;;8.70;3.00;;;;;;;-145.18;100.00;60484.78;5008312;28;20036;-62
2023/03/30 04:35:41;;;;;;;7.50;2.73;;;;;;;-145.18;100.00;60484.78;5012760;28;20026;-62
2023/03/30 04:38:07;;;;;;;6.87;2.83;;;;;;;-145.18;100.00;60484.78;5013179;28;20121;-62
2023/03/30 04:40:32;;;;;;;9.57;3.27;;;;;;;-145.18;100.00;60484.78;5016835;28;20100;-63
2023/03/30 04:43:02;;;;;;;6.17;2.60;;;;;;;-145.18;100.00;60484.78;5032141;28;20029;-62
2023/03/30 04:45:29;;;;;;;6.50;2.87;;;;;;;-145.18;100.00;60484.78;5027471;28;20035;-63
2023/03/30 04:47:55;;;;;;;10.10;3.20;;;;;;;-145.18;100.00;60484.78;5032351;28;20532;-62
2023/03/30 04:50:20;;;;;;;8.77;2.90;;;;;;;-145.18;100.00;60484.78;5018561;28;20101;-63
2023/03/30 04:52:46;;;;;;;9.27;2.77;;;;;;;-145.18;100.00;60484.78;5014439;28;20391;-62
2023/03/30 04:55:11;;;;;;;9.73;2.73;;;;;;;-145.18;100.00;60484.78;5012240;28;20033;-62
2023/03/30 04:57:37;;;;;;;6.37;2.57;;;;;;;-145.18;100.00;60484.78;5028917;28;20034;-63
2023/03/30 05:00:06;;;;;;;10.17;2.70;;;;;;;-145.18;100.00;60484.78;5011066;28;20037;-63
2023/03/30 05:02:32;;;;;;;8.33;2.90;;;;;;;-145.18;100.00;60484.78;5021562;28;20785;-62
2023/03/30 05:04:58;;;;;;;7.87;2.70;;;;;;;-145.18;100.00;60484.78;5011964;28;20034;-63
2023/03/30 05:07:23;;;;;;;7.20;3.07;;;;;;;-145.18;100.00;60484.78;5021266;28;20060;-62
2023/03/30 05:09:49;;;;;;;7.13;2.70;;;;;;;-145.18;100.00;60484.78;5011212;28;20083;-62
2023/03/30 05:12:15;;;;;;;10.53;3.03;;;;;;;-145.18;100.00;60484.78;5030117;28;20397;-62
2023/03/30 05:14:41;;;;;;;8.10;2.73;;;;;;;-145.18;100.00;60484.78;5030526;28;20036;-62
2023/03/30 05:17:07;;;;;;;9.03;3.10;;;;;;;-145.18;100.00;60484.78;5025288;28;20104;-62
2023/03/30 05:19:32;;;;;;;6.97;2.67;;;;;;;-145.18;100.00;60484.78;5028524;28;20119;-63
2023/03/30 05:21:58;;;;;;;7.67;2.63;;;;;;;-145.18;100.00;60484.78;5030260;28;20083;-62
2023/03/30 05:24:24;;;;;;;12.50;3.13;;;;;;;-145.18;100.00;60484.78;5032919;28;20029;-63
2023/03/30 05:26:49;;;;;;;10.43;2.73;;;;;;;-145.18;100.00;60484.78;5029374;28;20036;-62
2023/03/30 05:29:16;;;;;;;8.03;2.60;;;;;;;-145.18;100.00;60484.78;5031635;28;20069;-62
2023/03/30 05:31:41;;;;;;;10.63;2.90;;;;;;;-145.18;100.00;60484.78;5027481;28;20029;-62
2023/03/30 05:34:07;;;;;;;6.57;2.80;;;;;;;-145.18;100.00;60484.78;5017073;28;20452;-63
2023/03/30 05:36:34;;;;;;;7.43;2.60;;;;;;;-145.18;100.00;60484.78;5019383;28;20025;-62
2023/03/30 05:38:59;;;;;;;12.10;3.17;;;;;;;-145.18;100.00;60484.78;5032674;28;20033;-62
2023/03/30 05:41:26;;;;;;;8.00;2.57;;;;;;;-145.18;100.00;60484.78;5030335;28;20036;-63
2023/03/30 05:43:53;;;;;;;7.47;3.03;;;;;;;-145.18;100.00;60484.78;5032820;28;20469;-63
2023/03/30 05:46:18;;;;;;;7.97;2.57;;;;;;;-145.18;100.00;60484.78;5027330;28;20126;-62
2023/03/30 05:48:44;;;;;;;7.37;2.40;;;;;;;-145.18;100.00;60484.78;5029827;28;20553;-62
2023/03/30 05:51:09;;;;;;;6.33;2.70;;;;;;;-145.18;100.00;60484.78;5027225;28;20029;-62
2023/03/30 05:53:35;;;;;;;6.60;2.53;;;;;;;-145.18;100.00;60484.78;5032548;28;20090;-63
2023/03/30 05:56:01;;;;;;;8.40;2.80;;;;;;;-145.18;100.00;60484.78;5028512;28;20037;-62
2023/03/30 05:58:27;;;;;;;6.10;2.80;;;;;;;-145.18;100.00;60484.78;5035317;28;20041;-62
2023/03/30 06:00:56;;;;;;;7.83;2.80;;;;;;;-145.18;100.00;60484.78;5032879;28;20389;-62
2023/03/30 06:03:21;;;;;;;9.30;2.63;;;;;;;-145.18;100.00;60484.78;5014365;28;20406;-61
2023/03/30 06:05:47;;;;;;;9.53;2.60;;;;;;;-145.18;100.00;60484.78;5022617;28;20037;-62
2023/03/30 06:08:13;;;;;;;8.67;2.63;;;;;;;-145.18;100.00;60484.78;5035022;28;20036;-62
2023/03/30 06:10:39;;;;;;;7.47;2.50;;;;;;;-145.18;100.00;60484.78;5034951;28;20104;-61
2023/03/30 06:13:05;;;;;;;6.23;2.17;;;;;;;-145.18;100.00;60484.78;5033698;28;20040;-62
2023/03/30 06:15:31;;;;;;;6.37;2.33;;;;;;;-145.18;100.00;60484.78;5034990;28;20021;-62
2023/03/30 06:17:58;;;;;;;6.33;2.53;;;;;;;-145.18;100.00;60484.78;5031237;28;20037;-62
2023/03/30 06:20:24;;;;;;;9.80;3.57;;;;;;;-145.18;100.00;60484.78;5031840;28;20032;-62
2023/03/30 06:22:50;;;;;;;9.47;3.30;;;;;;;-145.18;100.00;60484.78;5026675;28;20052;-64
2023/03/30 06:25:18;;;;;;;8.40;2.50;;;;;;;-145.18;100.00;60484.78;5034786;28;20037;-62
2023/03/30 06:27:44;;;;;;;8.77;2.37;;;;;;;-145.18;100.00;60484.78;5034745;28;20037;-62
2023/03/30 06:30:10;;;;;;;7.10;2.80;;;;;;;-145.18;100.00;60484.78;5031892;28;20033;-62
2023/03/30 06:32:36;;;;;;;7.85;2.40;;;;;;;-145.18;100.00;60484.78;5025942;28;20136;-62
2023/03/30 06:35:02;;;;;;;10.70;2.75;;;;;;;-145.18;100.00;60484.78;5020951;28;20125;-62
2023/03/30 06:37:30;;;;;;;8.20;2.40;;;;;;;-145.18;100.00;60484.78;5034500;28;20037;-62
2023/03/30 06:39:56;;;;;;;10.00;2.80;;;;;;;-145.18;100.00;60484.78;5016672;28;20046;-62
2023/03/30 06:42:21;;;;;;;6.20;2.60;;;;;;;-145.18;100.00;60484.78;5032190;28;20034;-62
2023/03/30 06:44:47;;;;;;;5.60;2.42;;;;;;;-145.18;100.00;60484.78;5017666;28;20397;-62
2023/03/30 06:47:13;;;;;;;7.97;2.40;;;;;;;-145.18;100.00;60484.78;5034330;28;20037;-62
2023/03/30 06:49:38;;;;;;;9.10;2.30;;;;;;;-145.18;100.00;60484.78;5028913;28;20033;-62
2023/03/30 06:52:04;;;;;;;6.35;2.20;;;;;;;-145.18;100.00;60484.78;5033287;28;20037;-62
2023/03/30 06:54:29;;;;;;;8.20;2.40;;;;;;;-145.18;100.00;60484.78;5032664;28;20592;-62
2023/03/30 06:56:55;;;;;;;11.18;2.30;;;;;;;-145.18;100.00;60484.78;5026139;28;20042;-62
2023/03/30 06:59:20;;;;;;;6.63;2.83;;;;;;;-145.18;100.00;60484.78;5034186;28;20037;-62
2023/03/30 07:01:46;;;;;;;5.88;2.10;;;;;;;-145.18;100.00;60484.78;5034047;28;20124;-62
2023/03/30 07:04:11;;;;;;;6.72;2.17;;;;;;;-145.18;100.00;60484.78;5008646;28;20029;-62
2023/03/30 07:06:37;;;;;;;6.63;2.30;;;;;;;-145.18;100.00;60484.78;5033061;28;20033;-62
2023/03/30 07:09:04;;;;;;;8.82;2.03;;;;;;;-145.18;100.00;60484.78;5033734;28;20100;-62
2023/03/30 07:11:30;;;;;;;6.10;2.30;;;;;;;-145.18;100.00;60484.78;5032532;28;20108;-62
2023/03/30 07:13:57;;;;;;;7.28;2.47;;;;;;;-145.18;100.00;60484.78;5032424;28;20401;-62
2023/03/30 07:16:23;;;;;;;5.55;2.20;;;;;;;-145.18;100.00;60484.78;5029294;28;20485;-61
2023/03/30 07:18:49;;;;;;;8.25;2.10;;;;;;;-145.18;100.00;60484.78;5034714;28;20037;-62
2023/03/30 07:21:14;;;;;;;7.43;2.20;;;;;;;-145.18;100.00;60484.78;5028855;28;20040;-62
2023/03/30 07:23:40;;;;;;;7.88;2.10;;;;;;;-145.18;100.00;60484.78;5033703;28;20040;-62
2023/03/30 07:26:06;;;;;;;8.35;2.00;;;;;;;-145.18;100.00;60484.78;5033016;28;20033;-62
2023/03/30 07:28:32;;;;;;;10.80;3.33;;;;;;;-145.18;100.00;60484.78;5033638;28;20029;-61
2023/03/30 07:31:05;;;;;;;5.32;2.00;;;;;;;-145.18;100.00;60484.78;5033515;28;20029;-62
2023/03/30 07:33:31;;;;;;;8.00;2.30;;;;;;;-145.18;100.00;60484.78;5034246;28;20029;-62
2023/03/30 07:35:56;;;;;;;7.43;1.85;;;;;;;-145.18;100.00;60484.78;5019628;28;20121;-62
2023/03/30 07:38:22;;;;;;;8.48;2.20;;;;;;;-145.18;100.00;60484.78;5026368;28;20379;-62
2023/03/30 07:40:48;;;;;;;7.28;2.03;;;;;;;-145.18;100.00;60484.78;5018515;28;20390;-63
2023/03/30 07:43:13;;;;;;;5.25;2.20;;;;;;;-145.18;100.00;60484.78;5034396;28;20036;-61
2023/03/30 07:45:39;;;;;;;6.47;2.23;;;;;;;-145.18;100.00;60484.78;5032657;28;20459;-62
2023/03/30 07:48:04;;;;;;;7.77;2.30;;;;;;;-145.18;100.00;60484.78;5033068;28;20116;-62
2023/03/30 07:50:30;;;;;;;6.43;1.97;;;;;;;-145.18;100.00;60484.78;5016558;28;20026;-62
2023/03/30 07:52:55;;;;;;;7.97;2.72;;;;;;;-145.18;100.00;60484.78;5021850;28;20057;-61
2023/03/30 07:55:21;;;;;;;4.32;1.95;;;;;;;-145.18;100.00;60484.78;5031790;28;20040;-61
2023/03/30 07:57:46;;;;;;;8.93;2.30;;;;;;;-145.18;100.00;60484.78;5033852;28;20440;-62
2023/03/30 08:00:13;;;;;;;5.95;1.90;;;;;;;-145.18;100.00;60484.78;5030944;28;20029;-61
2023/03/30 08:02:39;;;;;;;8.40;2.65;;;;;;;-145.18;100.00;60484.78;5025771;28;20105;-62
2023/03/30 08:05:05;;;;;;;5.63;1.90;;;;;;;-145.18;100.00;60484.78;5013286;28;20061;-62
2023/03/30 08:07:32;;;;;;;5.20;2.10;;;;;;;-145.18;100.00;60484.78;5029685;28;20033;-62
2023/03/30 08:09:58;;;;;;;6.05;2.08;;;;;;;-145.18;100.00;60484.78;5029733;28;20030;-62
2023/03/30 08:12:24;;;;;;;6.55;2.08;;;;;;;-145.18;100.00;60484.78;5032925;28;20080;-62
2023/03/30 08:14:50;;;;;;;4.57;1.95;;;;;;;-145.18;100.00;60484.78;5033599;28;20034;-62
2023/03/30 08:17:15;;;;;;;6.40;2.25;;;;;;;-145.18;100.00;60484.78;5032920;28;20030;-61
2023/03/30 08:19:41;;;;;;;8.40;2.47;;;;;;;-145.18;100.00;60484.78;5031551;28;20108;-61
2023/03/30 08:22:06;;;;;;;7.05;2.30;;;;;;;-145.18;100.00;60484.78;5025585;28;20037;-62
2023/03/30 08:24:32;;;;;;;6.20;1.77;;;;;;;-145.18;100.00;60484.78;5027132;28;20109;-61
2023/03/30 08:26:57;;;;;;;5.03;1.83;;;;;;;-145.18;100.00;60484.78;5031227;28;20034;-59
2023/03/30 08:29:23;;;;;;;3.60;1.63;;;;;;;-145.18;100.00;60484.78;5033241;28;20051;-59
2023/03/30 08:31:49;;;;;;;7.72;2.35;;;;;;;-145.18;100.00;60484.78;5032526;28;20035;-59
2023/03/30 08:34:15;;;;;;;4.85;1.60;;;;;;;-145.18;100.00;60484.78;5022475;28;20075;-59
2023/03/30 08:36:40;;;;;;;7.53;2.00;;;;;;;-145.18;100.00;60484.78;5018615;28;20034;-61
2023/03/30 08:39:06;;;;;;;7.03;1.75;;;;;;;-145.18;100.00;60484.78;4996192;28;20422;-61
2023/03/30 08:42:23;;;;;;;9.70;1.83;;;;;;;-145.18;100.00;60484.78;5011745;28;20492;-62
2023/03/30 08:44:56;;;;;;;10.30;2.03;;;;;;;-145.18;100.00;60484.78;4969875;28;20038;-60
2023/03/30 08:47:32;;;;;;;7.57;1.88;;;;;;;-145.18;100.00;60484.78;4991475;28;20410;-60
2023/03/30 08:50:07;;;;;;;5.30;1.80;;;;;;;-145.18;100.00;60484.78;4991180;28;20466;-60
2023/03/30 08:52:34;;;;;;;8.57;2.05;;;;;;;-145.18;100.00;60484.78;4989733;28;20042;-60
2023/03/30 08:55:00;;;;;;;14.10;2.22;;;;;;;-145.18;100.00;60484.78;4990408;28;20038;-60
2023/03/30 08:57:58;;;;;;;7.93;2.15;;;;;;;-145.18;100.00;60484.78;4991657;28;20052;-60
2023/03/30 09:01:00;;;;;;;8.13;2.08;;;;;;;-145.18;100.00;60484.78;4959394;28;20427;-60
2023/03/30 09:03:37;;;;;;;5.85;1.80;;;;;;;-145.18;100.00;60484.78;4970310;28;20062;-60
2023/03/30 09:06:18;;;;;;;8.90;1.88;;;;;;;-145.18;100.00;60484.78;4980482;28;20065;-61
2023/03/30 09:08:45;;;;;;;6.65;1.40;;;;;;;-145.18;100.00;60484.78;4990158;28;20034;-60
2023/03/30 09:11:16;;;;;;;6.18;1.85;;;;;;;-145.18;100.00;60484.78;4990278;28;20065;-60
2023/03/30 09:13:45;;;;;;;8.02;1.58;;;;;;;-145.18;100.00;60484.78;4984476;28;20093;-60
2023/03/30 09:17:03;;;;;;;8.60;1.52;;;;;;;-145.18;100.00;60484.78;4982135;28;20507;-61
2023/03/30 09:19:50;;;;;;;6.68;1.70;;;;;;;-145.18;100.00;60484.78;4912061;29;20048;-60
2023/03/30 09:22:18;;;;;;;7.55;1.83;;;;;;;-145.18;100.00;60484.78;4949513;28;20074;-60
2023/03/30 09:24:43;;;;;;;8.27;1.80;;;;;;;-145.18;100.00;60484.78;4948037;29;20051;-60
2023/03/30 09:27:25;;;;;;;7.18;1.70;;;;;;;-145.18;100.00;60484.78;4950882;29;20090;-61
2023/03/30 09:29:54;;;;;;;8.93;2.03;;;;;;;-145.18;100.00;60484.78;4952795;28;20075;-60
2023/03/30 09:32:31;;;;;;;7.03;2.10;;;;;;;-145.18;100.00;60484.78;4937270;29;20052;-61
2023/03/30 09:35:10;;;;;;;6.57;2.28;;;;;;;-145.18;100.00;60484.78;4939079;29;20035;-60
2023/03/30 09:37:36;;;;;;;8.25;2.00;;;;;;;-145.18;100.00;60484.78;4955150;28;20047;-60
2023/03/30 09:40:31;;;;;;;8.68;2.20;;;;;;;-145.18;100.00;60484.78;4949623;28;20050;-60
2023/03/30 09:43:13;;;;;;;9.63;1.77;;;;;;;-145.18;100.00;60484.78;4955525;29;20181;-60
2023/03/30 09:45:41;;;;;;;8.57;1.98;;;;;;;-145.18;100.00;60484.78;4955400;29;20031;-60
2023/03/30 09:48:08;;;;;;;7.00;2.20;;;;;;;-145.18;100.00;60484.78;4956108;28;20090;-60
2023/03/30 09:50:40;;;;;;;6.50;2.10;;;;;;;-145.18;100.00;60484.78;5014725;28;20040;-60
2023/03/30 09:53:18;;;;;;;5.45;1.73;;;;;;;-145.18;100.00;60484.78;5031908;28;20036;-59
2023/03/30 09:56:06;;;;;;;9.93;2.10;;;;;;;-145.18;100.00;60484.78;5026097;28;20083;-60
2023/03/30 09:58:33;;;;;;;8.55;1.80;;;;;;;-145.18;100.00;60484.78;5033874;28;20020;-59
2023/03/30 10:01:15;;;;;;;6.50;1.60;;;;;;;-145.18;100.00;60484.78;5031883;28;20404;-60
2023/03/30 10:03:42;;;;;;;7.70;1.83;;;;;;;-145.18;100.00;60484.78;5019881;28;20501;-60
2023/03/30 10:06:15;;;;;;;5.45;1.63;;;;;;;-145.18;100.00;60484.78;5035247;28;20033;-60
2023/03/30 10:08:55;;;;;;;4.88;1.50;;;;;;;-145.18;100.00;60484.78;5049342;28;20034;-60
2023/03/30 10:11:44;;;;;;;5.25;1.48;;;;;;;-145.18;100.00;60484.78;5030181;28;21544;-60
2023/03/30 10:14:27;;;;;;;7.57;1.90;;;;;;;-145.18;100.00;60484.78;4993678;28;20552;-60
2023/03/30 10:16:53;;;;;;;8.30;1.92;;;;;;;-145.18;100.00;60484.78;4993755;28;20043;-60
2023/03/30 10:19:21;;;;;;;6.75;1.77;;;;;;;-145.18;100.00;60484.78;4983356;28;20047;-60
2023/03/30 10:21:52;;;;;;;5.47;1.63;;;;;;;-145.18;100.00;60484.78;4993434;28;20038;-60
2023/03/30 10:24:23;;;;;;;8.27;2.00;;;;;;;-145.18;100.00;60484.78;4994247;28;20030;-60
2023/03/30 10:26:56;;;;;;;7.53;1.92;;;;;;;-145.18;100.00;60484.78;4981333;28;20030;-60
2023/03/30 10:29:26;;;;;;;7.32;1.42;;;;;;;-145.18;100.00;60484.78;4992523;28;20524;-61
2023/03/30 10:32:09;;;;;;;5.65;1.23;;;;;;;-145.18;100.00;60484.78;4992127;28;20042;-60
2023/03/30 10:34:41;;;;;;;7.40;1.48;;;;;;;-145.18;100.00;60484.78;4988122;28;20066;-61
2023/03/30 10:37:21;;;;;;;6.57;1.20;;;;;;;-145.18;100.00;60484.78;4993178;28;20038;-61
2023/03/30 10:39:50;;;;;;;5.97;1.50;;;;;;;-145.18;100.00;60484.78;4992520;28;20128;-60
2023/03/30 10:42:22;;;;;;;8.70;1.88;;;;;;;-145.18;100.00;60484.78;4975580;28;20034;-60
2023/03/30 10:44:54;;;;;;;7.07;1.60;;;;;;;-145.18;100.00;60484.78;4983978;28;20034;-61
2023/03/30 10:47:51;;;;;;;6.05;1.60;;;;;;;-145.18;100.00;60484.78;4991698;28;20062;-60
2023/03/30 10:50:59;;;;;;;12.00;1.88;;;;;;;-145.18;100.00;60484.78;4987121;28;20039;-60
2023/03/30 10:54:29;;;;;;;11.63;1.60;;;;;;;-145.18;100.00;60484.78;5031652;28;20029;-60
2023/03/30 10:57:02;;;;;;;7.10;1.33;;;;;;;-145.18;100.00;60484.78;4932525;28;20425;-61
2023/03/30 11:00:09;;;;;;;5.57;1.33;;;;;;;-145.18;100.00;60484.78;4990855;28;20256;-60
2023/03/30 11:02:53;;;;;;;9.95;2.10;;;;;;;-145.18;100.00;60484.78;4976372;28;20042;-61
2023/03/30 11:05:31;;;;;;;7.80;1.60;;;;;;;-145.18;100.00;60484.78;4976646;28;20038;-60
2023/03/30 11:08:03;;;;;;;7.47;1.40;;;;;;;-145.18;100.00;60484.78;4972675;28;20499;-60
2023/03/30 11:10:32;;;;;;;8.90;1.75;;;;;;;-145.18;100.00;60484.78;4972014;28;20530;-61
2023/03/30 11:13:02;;;;;;;8.38;1.85;;;;;;;-145.18;100.00;60484.78;4961476;28;20037;-60
2023/03/30 11:15:34;;;;;;;9.70;2.27;;;;;;;-145.18;100.00;60484.78;4975297;28;20030;-61
2023/03/30 11:18:18;;;;;;;;;;;;;;;-145.18;100.00;60484.78;4993038;28;20296;-61
2023/03/30 11:21:00;;;;;;;8.02;1.42;;;;;;;-145.18;100.00;60484.78;4990613;28;19972;-61
2023/03/30 11:23:46;;;;;;;11.38;2.10;;;;;;;-145.18;100.00;60484.78;4992430;28;20038;-61
2023/03/30 11:26:41;;;;;;;7.38;1.63;;;;;;;-145.18;100.00;60484.78;4992436;28;20041;-60
2023/03/30 11:29:50;;;;;;;7.90;2.33;;;;;;;-145.18;100.00;60484.78;4984061;28;20049;-60